Terminal Aerodrome Forecast
Issued by NWS Pocatello, ID

Home | Current Version | Previous Version | Text Only | Print | Product List | Glossary On
Versions: 1 2 3 4 5 6 7 8 9 10 11 12
000
FTUS45 KPIH 150500
TAFPIH
TAF
KPIH 150520Z 1506/1606 VRB04KT P6SM BKN120
     FM151500 VRB04KT P6SM SCT110
     FM152100 25010KT P6SM SCT110
     FM160300 18006KT P6SM BKN110=

USA.gov is the U.S. government's official web portal to all federal, state and local government web resources and services.